Terminal Aerodrome Forecast
Issued by NWS

Current Version | Previous Version | Text Only | Print | Product List | Glossary Off
Versions: 1 2 3 4 5 6 7 8 9 10 11 12 13 14 15 16 17 18 19 20 21 22 23 24 25 26 27 28 29 30 31 32 33 34 35 36 37 38 39

440
FTUS41 KRNK 221004 AAB
TAFLWB
TAF AMD
KLWB 221004Z 2210/2306 00000KT 1/2SM FG OVC001
      TEMPO 2210/2213 1SM BR
     FM221300 21003KT 4SM BR SCT015 OVC150
     FM221500 21006KT P6SM VCSH BKN035
     FM230300 04004KT P6SM OVC015=

USA.gov is the U.S. government's official web portal to all federal, state and local government web resources and services.